createdAt,value
2022-10-07T00:00:38.643Z,14.07
2022-10-07T00:03:09.390Z,14.20
2022-10-07T00:05:40.104Z,14.27
2022-10-07T00:08:10.884Z,15.50
2022-10-07T00:10:42.610Z,14.03
2022-10-07T00:13:14.447Z,17.50
2022-10-07T00:15:46.801Z,16.70
2022-10-07T00:18:18.568Z,16.47
2022-10-07T00:20:49.282Z,16.67
2022-10-07T00:23:22.413Z,15.83
2022-10-07T00:25:53.358Z,14.63
2022-10-07T00:28:26.337Z,14.67
2022-10-07T00:31:02.629Z,16.43
2022-10-07T00:33:35.007Z,16.43
2022-10-07T00:36:10.272Z,15.90
2022-10-07T00:38:41.318Z,15.33
2022-10-07T00:41:18.837Z,14.50
2022-10-07T00:43:50.114Z,17.60
2022-10-07T00:46:30.416Z,14.13
2022-10-07T00:49:04.204Z,16.07
2022-10-07T00:51:36.587Z,15.80
2022-10-07T00:54:10.990Z,15.00
2022-10-07T00:56:43.533Z,15.53
2022-10-07T00:59:14.889Z,17.70
2022-10-07T01:01:48.487Z,14.70
2022-10-07T01:04:20.346Z,16.33
2022-10-07T01:06:51.144Z,16.80
2022-10-07T01:09:22.425Z,19.10
2022-10-07T01:12:02.073Z,17.93
2022-10-07T01:14:46.089Z,26.00
2022-10-07T01:17:28.341Z,22.63
2022-10-07T01:20:27.926Z,20.33
2022-10-07T01:23:23.567Z,18.37
2022-10-07T01:26:08.178Z,23.07
2022-10-07T01:28:44.087Z,16.77
2022-10-07T01:31:20.300Z,19.43
2022-10-07T01:33:52.535Z,17.90
2022-10-07T01:36:26.583Z,19.00
2022-10-07T01:39:08.203Z,21.87
2022-10-07T01:41:41.709Z,19.47
2022-10-07T01:44:16.475Z,20.17
2022-10-07T01:46:48.625Z,17.77
2022-10-07T01:49:19.366Z,18.57
2022-10-07T01:51:57.634Z,18.70
2022-10-07T01:54:39.635Z,21.10
2022-10-07T01:57:21.000Z,20.70
2022-10-07T02:00:06.382Z,25.60
2022-10-07T02:02:58.158Z,25.60
2022-10-07T02:05:40.573Z,25.63
2022-10-07T02:08:31.083Z,28.40
2022-10-07T02:11:14.792Z,27.53
2022-10-07T02:13:56.621Z,29.93
2022-10-07T02:16:33.462Z,24.87
2022-10-07T02:19:09.480Z,26.70
2022-10-07T02:21:41.985Z,25.20
2022-10-07T02:24:15.223Z,24.83
2022-10-07T02:26:48.190Z,24.67
2022-10-07T02:29:20.984Z,23.80
2022-10-07T02:31:55.226Z,24.70
2022-10-07T02:34:29.367Z,24.23
2022-10-07T02:37:04.374Z,26.13
2022-10-07T02:39:35.186Z,25.90
2022-10-07T02:42:19.298Z,22.90
2022-10-07T02:44:54.294Z,22.30
2022-10-07T02:47:32.661Z,23.43
2022-10-07T02:50:06.723Z,25.00
2022-10-07T02:52:38.810Z,25.00
2022-10-07T02:55:12.537Z,24.87
2022-10-07T02:57:47.107Z,27.23
2022-10-07T03:00:19.744Z,25.70
2022-10-07T03:02:54.739Z,27.40
2022-10-07T03:05:26.868Z,27.60
2022-10-07T03:08:00.556Z,23.00
2022-10-07T03:10:31.469Z,21.17
2022-10-07T03:13:02.546Z,18.87
2022-10-07T03:15:35.550Z,18.00
2022-10-07T03:18:27.003Z,20.10
2022-10-07T03:20:58.512Z,19.40
2022-10-07T03:23:30.691Z,18.57
2022-10-07T03:26:02.481Z,19.43
2022-10-07T03:28:38.678Z,17.13
2022-10-07T03:31:10.835Z,19.23
2022-10-07T03:33:43.483Z,18.80
2022-10-07T03:36:14.823Z,18.70
2022-10-07T03:38:45.578Z,19.23
2022-10-07T03:41:16.299Z,18.40
2022-10-07T03:43:47.338Z,22.40
2022-10-07T03:46:18.203Z,18.40
2022-10-07T03:48:50.687Z,15.73
2022-10-07T03:51:21.514Z,18.37
2022-10-07T03:53:55.357Z,22.30
2022-10-07T03:56:26.163Z,18.70
2022-10-07T03:58:56.907Z,19.07
2022-10-07T04:01:28.048Z,19.53
2022-10-07T04:04:01.368Z,15.07
2022-10-07T04:06:32.149Z,16.80
2022-10-07T04:09:04.265Z,18.40
2022-10-07T04:11:35.299Z,18.20
2022-10-07T04:14:06.109Z,16.23
2022-10-07T04:16:38.225Z,17.60
2022-10-07T04:19:10.784Z,17.27
2022-10-07T04:21:42.461Z,17.33
2022-10-07T04:24:13.182Z,18.47
2022-10-07T04:26:44.629Z,15.27
2022-10-07T04:29:16.394Z,17.67
2022-10-07T04:31:47.416Z,17.40
2022-10-07T04:34:19.809Z,17.30
2022-10-07T04:36:50.566Z,16.97
2022-10-07T04:39:21.440Z,17.90
2022-10-07T04:41:52.560Z,14.70
2022-10-07T04:44:23.298Z,18.13
2022-10-07T04:46:57.296Z,18.10
2022-10-07T04:49:29.702Z,18.10
2022-10-07T04:52:00.475Z,18.97
2022-10-07T04:54:31.214Z,15.93
2022-10-07T04:57:01.996Z,14.80
2022-10-07T04:59:33.729Z,16.30
2022-10-07T05:02:05.306Z,15.17
2022-10-07T05:04:37.881Z,14.13
2022-10-07T05:07:09.389Z,14.23
2022-10-07T05:09:40.113Z,17.43
2022-10-07T05:12:10.941Z,14.27
2022-10-07T05:14:43.979Z,14.27
2022-10-07T05:17:15.354Z,15.90
2022-10-07T05:19:47.718Z,17.03
2022-10-07T05:22:18.489Z,18.40
2022-10-07T05:24:49.306Z,14.73
2022-10-07T05:27:20.130Z,14.93
2022-10-07T05:29:51.008Z,17.57
2022-10-07T05:32:22.049Z,16.40
2022-10-07T05:34:54.663Z,16.13
2022-10-07T05:37:25.504Z,16.80
2022-10-07T05:39:56.294Z,15.13
2022-10-07T05:42:27.134Z,17.50
2022-10-07T05:44:57.943Z,16.80
2022-10-07T05:47:28.812Z,17.43
2022-10-07T05:50:01.271Z,15.47
2022-10-07T05:52:32.943Z,20.03
2022-10-07T05:55:03.783Z,15.23
2022-10-07T05:57:34.702Z,16.23
2022-10-07T06:00:06.211Z,15.87
2022-10-07T06:02:37.171Z,12.63
2022-10-07T06:05:10.888Z,12.23
2022-10-07T06:07:41.735Z,16.90
2022-10-07T06:10:29.903Z,16.50
2022-10-07T06:13:12.586Z,17.30
2022-10-07T06:15:43.386Z,17.47
2022-10-07T06:18:14.277Z,14.73
2022-10-07T06:20:55.188Z,15.90
2022-10-07T06:23:26.319Z,16.20
2022-10-07T06:26:00.014Z,16.83
2022-10-07T06:28:35.663Z,16.10
2022-10-07T06:31:08.127Z,16.60
2022-10-07T06:33:39.323Z,16.27
2022-10-07T06:36:14.653Z,14.77
2022-10-07T06:38:48.211Z,12.50
2022-10-07T06:41:19.517Z,15.63
2022-10-07T06:43:50.600Z,19.27
2022-10-07T06:46:22.615Z,16.00
2022-10-07T06:48:53.478Z,14.37
2022-10-07T06:51:26.055Z,15.87
2022-10-07T06:53:58.446Z,13.87
2022-10-07T06:56:29.268Z,15.20
2022-10-07T06:59:00.106Z,16.33
2022-10-07T07:01:30.948Z,14.87
2022-10-07T07:04:02.910Z,14.73
2022-10-07T07:06:39.123Z,13.80
2022-10-07T07:09:09.906Z,20.33
2022-10-07T07:11:42.555Z,18.33
2022-10-07T07:14:14.589Z,14.80
2022-10-07T07:16:45.458Z,16.60
2022-10-07T07:19:16.927Z,16.00
2022-10-07T07:21:51.318Z,12.77
2022-10-07T07:24:22.799Z,17.03
2022-10-07T07:26:53.726Z,18.07
2022-10-07T07:29:24.723Z,14.70
2022-10-07T07:31:55.881Z,13.87
2022-10-07T07:34:26.802Z,18.00
2022-10-07T07:36:59.287Z,16.97
2022-10-07T07:39:29.982Z,13.40
2022-10-07T07:42:00.744Z,14.60
2022-10-07T07:44:34.770Z,14.40
2022-10-07T07:47:06.400Z,17.80
2022-10-07T07:49:37.151Z,16.10
2022-10-07T07:52:09.511Z,13.80
2022-10-07T07:54:42.325Z,15.30
2022-10-07T07:57:13.221Z,15.10
2022-10-07T07:59:43.986Z,13.40
2022-10-07T08:02:15.225Z,15.53
2022-10-07T08:04:46.116Z,17.37
2022-10-07T08:07:18.782Z,19.73
2022-10-07T08:09:49.535Z,15.10
2022-10-07T08:12:21.850Z,15.90
2022-10-07T08:14:53.595Z,15.40
2022-10-07T08:17:25.442Z,18.77
2022-10-07T08:19:57.050Z,15.40
2022-10-07T08:22:29.430Z,16.03
2022-10-07T08:25:01.002Z,18.37
2022-10-07T08:27:31.734Z,17.40
2022-10-07T08:30:03.127Z,14.40
2022-10-07T08:32:33.850Z,15.93
2022-10-07T08:35:04.571Z,16.10
2022-10-07T08:37:36.935Z,13.47
2022-10-07T08:40:08.457Z,16.90
2022-10-07T08:42:43.134Z,13.60
2022-10-07T08:45:23.301Z,17.30
2022-10-07T08:47:54.858Z,17.33
2022-10-07T08:50:30.832Z,18.43
2022-10-07T08:53:05.594Z,14.63
2022-10-07T08:55:42.851Z,17.93
2022-10-07T08:58:46.326Z,15.10
2022-10-07T09:01:28.466Z,17.80
2022-10-07T09:04:08.996Z,12.70
2022-10-07T09:06:44.722Z,15.97
2022-10-07T09:09:21.756Z,12.37
2022-10-07T09:11:53.838Z,15.57
2022-10-07T09:14:31.376Z,13.80
2022-10-07T09:17:08.958Z,15.03
2022-10-07T09:19:44.533Z,14.00
2022-10-07T09:22:23.152Z,18.10
2022-10-07T09:25:11.279Z,17.30
2022-10-07T09:27:42.849Z,17.67
2022-10-07T09:30:16.304Z,14.47
2022-10-07T09:32:48.130Z,16.40
2022-10-07T09:35:21.466Z,14.50
2022-10-07T09:38:04.113Z,15.37
2022-10-07T09:40:59.120Z,13.73
2022-10-07T09:43:30.523Z,15.30
2022-10-07T09:46:02.022Z,15.00
2022-10-07T09:48:35.163Z,17.33
2022-10-07T09:51:28.350Z,14.57
2022-10-07T09:54:03.628Z,17.50
2022-10-07T09:56:39.977Z,15.37
2022-10-07T09:59:24.887Z,16.13
2022-10-07T10:01:57.342Z,14.90
2022-10-07T10:04:34.230Z,15.33
2022-10-07T10:07:08.167Z,16.77
2022-10-07T10:09:38.975Z,19.67
2022-10-07T10:12:18.903Z,13.87
2022-10-07T10:14:54.026Z,13.20
2022-10-07T10:17:32.357Z,17.80
2022-10-07T10:20:37.156Z,17.27
2022-10-07T10:23:31.315Z,17.07
2022-10-07T10:26:33.920Z,23.70
2022-10-07T10:29:27.530Z,18.43
2022-10-07T10:32:23.423Z,14.70
2022-10-07T10:35:02.414Z,14.87
2022-10-07T10:37:47.046Z,15.20
2022-10-07T10:40:25.938Z,19.03
2022-10-07T10:43:06.737Z,16.27
2022-10-07T10:45:47.681Z,13.67
2022-10-07T10:48:31.517Z,15.47
2022-10-07T10:51:11.034Z,16.27
2022-10-07T10:53:52.593Z,20.17
2022-10-07T10:56:36.928Z,18.60
2022-10-07T10:59:27.397Z,14.53
2022-10-07T11:02:07.827Z,20.60
2022-10-07T11:04:46.313Z,14.53
2022-10-07T11:07:24.341Z,16.33
2022-10-07T11:09:58.006Z,16.23
2022-10-07T11:12:32.678Z,16.90
2022-10-07T11:15:09.634Z,14.17
2022-10-07T11:17:42.607Z,15.53
2022-10-07T11:20:21.684Z,16.57
2022-10-07T11:22:57.556Z,16.43
2022-10-07T11:25:34.166Z,16.97
2022-10-07T11:28:16.010Z,14.40
2022-10-07T11:30:52.552Z,14.83
2022-10-07T11:33:32.873Z,15.33
2022-10-07T11:36:11.293Z,19.93
2022-10-07T11:38:43.486Z,13.67
2022-10-07T11:41:20.746Z,15.83
2022-10-07T11:43:56.565Z,14.07
2022-10-07T11:46:31.290Z,14.67
2022-10-07T11:49:08.622Z,14.33
2022-10-07T11:51:42.390Z,12.97
2022-10-07T11:54:19.595Z,16.23
2022-10-07T11:56:52.686Z,19.30
2022-10-07T11:59:34.273Z,14.33
2022-10-07T12:02:05.353Z,14.57
2022-10-07T12:04:41.623Z,12.43
2022-10-07T12:07:37.796Z,13.63
2022-10-07T12:10:27.309Z,14.30
2022-10-07T12:13:01.369Z,14.13
2022-10-07T12:15:39.590Z,14.80
2022-10-07T12:18:32.404Z,15.30
2022-10-07T12:21:07.748Z,12.67
2022-10-07T12:23:48.217Z,15.77
2022-10-07T12:26:54.678Z,15.87
2022-10-07T12:29:36.618Z,12.90
2022-10-07T12:32:27.515Z,13.60
2022-10-07T12:34:58.316Z,17.40
2022-10-07T12:38:06.875Z,12.57
2022-10-07T12:40:40.063Z,13.97
2022-10-07T12:43:29.661Z,15.83
2022-10-07T12:46:01.443Z,17.70
2022-10-07T12:48:37.629Z,14.60
2022-10-07T12:51:14.527Z,14.57
2022-10-07T12:53:48.381Z,14.07
2022-10-07T12:56:23.975Z,11.30
2022-10-07T12:59:27.016Z,15.40
2022-10-07T13:02:29.461Z,13.87
2022-10-07T13:05:35.041Z,15.13
2022-10-07T13:08:49.324Z,15.37
2022-10-07T13:11:52.228Z,13.07
2022-10-07T13:14:30.773Z,11.33
2022-10-07T13:17:11.259Z,12.80
2022-10-07T13:19:49.196Z,19.47
2022-10-07T13:22:20.803Z,12.80
2022-10-07T13:24:54.120Z,16.17
2022-10-07T13:27:30.111Z,14.13
2022-10-07T13:30:02.878Z,12.50
2022-10-07T13:32:35.056Z,12.83
2022-10-07T13:35:36.235Z,15.03
2022-10-07T13:38:09.588Z,16.90
2022-10-07T13:40:40.701Z,15.00
2022-10-07T13:43:17.684Z,13.03
2022-10-07T13:45:49.790Z,14.33
2022-10-07T13:48:23.942Z,12.07
2022-10-07T13:50:56.851Z,11.23
2022-10-07T13:53:31.459Z,13.67
2022-10-07T13:56:11.725Z,13.83
2022-10-07T13:58:44.522Z,13.10
2022-10-07T14:01:16.038Z,11.70
2022-10-07T14:04:11.244Z,17.53
2022-10-07T14:06:50.779Z,16.30
2022-10-07T14:09:23.380Z,12.90
2022-10-07T14:11:59.253Z,15.20
2022-10-07T14:14:36.238Z,12.77
2022-10-07T14:17:14.805Z,10.20
2022-10-07T14:19:45.546Z,16.90
2022-10-07T14:22:22.523Z,10.30
2022-10-07T14:25:02.887Z,15.43
2022-10-07T14:27:57.189Z,13.63
2022-10-07T14:30:53.322Z,14.43
2022-10-07T14:33:49.555Z,10.30
2022-10-07T14:36:22.111Z,9.87
2022-10-07T14:38:54.241Z,15.90
2022-10-07T14:41:25.983Z,15.20
2022-10-07T14:44:00.911Z,16.03
2022-10-07T14:46:34.219Z,11.33
2022-10-07T14:49:05.011Z,15.43
2022-10-07T14:51:35.752Z,11.87
2022-10-07T14:54:08.598Z,18.00
2022-10-07T14:56:39.660Z,20.30
2022-10-07T14:59:20.170Z,19.63
2022-10-07T15:01:52.550Z,17.57
2022-10-07T15:04:23.432Z,21.20
2022-10-07T15:06:54.215Z,20.10
2022-10-07T15:09:24.999Z,20.80
2022-10-07T15:11:55.759Z,18.03
2022-10-07T15:14:26.509Z,20.07
2022-10-07T15:16:58.914Z,31.13
2022-10-07T15:19:29.660Z,22.53
2022-10-07T15:22:00.862Z,19.40
2022-10-07T15:24:31.869Z,19.57
2022-10-07T15:27:03.246Z,17.53
2022-10-07T15:29:33.999Z,21.33
2022-10-07T15:32:08.285Z,21.73
2022-10-07T15:34:39.056Z,20.60
2022-10-07T15:37:10.457Z,20.17
2022-10-07T15:39:41.243Z,19.43
2022-10-07T15:42:13.695Z,18.90
2022-10-07T15:44:45.794Z,18.17
2022-10-07T15:47:18.203Z,20.57
2022-10-07T15:49:49.838Z,21.97
2022-10-07T15:52:20.585Z,17.23
2022-10-07T15:54:51.870Z,21.07
2022-10-07T15:57:23.249Z,20.07
2022-10-07T15:59:55.511Z,20.27
2022-10-07T16:02:27.951Z,17.77
2022-10-07T16:04:58.745Z,17.93
2022-10-07T16:07:31.052Z,25.00
2022-10-07T16:10:01.846Z,17.00
2022-10-07T16:12:32.584Z,19.30
2022-10-07T16:15:04.534Z,17.77
2022-10-07T16:17:36.911Z,25.53
2022-10-07T16:20:11.339Z,22.00
2022-10-07T16:22:42.474Z,20.23
2022-10-07T16:25:13.397Z,21.40
2022-10-07T16:28:02.673Z,18.07
2022-10-07T16:30:46.136Z,17.80
2022-10-07T16:33:19.430Z,20.00
2022-10-07T16:35:50.335Z,23.00
2022-10-07T16:38:23.872Z,18.00
2022-10-07T16:40:57.751Z,17.40
2022-10-07T16:43:28.610Z,18.10
2022-10-07T16:46:02.825Z,20.40
2022-10-07T16:48:40.114Z,21.27
2022-10-07T16:51:12.529Z,21.77
2022-10-07T16:53:43.628Z,24.03
2022-10-07T16:56:14.532Z,20.33
2022-10-07T16:58:45.577Z,19.87
2022-10-07T17:01:17.595Z,22.13
2022-10-07T17:03:50.657Z,23.07
2022-10-07T17:06:22.713Z,20.57
2022-10-07T17:08:53.602Z,19.23
2022-10-07T17:11:31.179Z,19.77
2022-10-07T17:14:03.354Z,21.63
2022-10-07T17:16:36.199Z,25.60
2022-10-07T17:19:09.490Z,22.50
2022-10-07T17:21:41.773Z,27.27
2022-10-07T17:24:14.165Z,23.13
2022-10-07T17:26:44.986Z,25.33
2022-10-07T17:29:18.928Z,23.37
2022-10-07T17:31:51.417Z,24.03
2022-10-07T17:34:24.524Z,25.67
2022-10-07T17:36:55.410Z,25.50
2022-10-07T17:39:26.203Z,24.97
2022-10-07T17:41:56.964Z,25.60
2022-10-07T17:44:27.691Z,27.67
2022-10-07T17:47:00.260Z,31.40
2022-10-07T17:49:33.133Z,28.30
2022-10-07T17:52:04.927Z,22.73
2022-10-07T17:54:35.690Z,27.23
2022-10-07T17:57:06.502Z,32.60
2022-10-07T17:59:37.243Z,30.07
2022-10-07T18:02:07.997Z,29.00
2022-10-07T18:04:40.470Z,36.90
2022-10-07T18:07:11.257Z,29.23
2022-10-07T18:09:42.257Z,33.67
2022-10-07T18:12:29.432Z,31.13
2022-10-07T18:15:16.614Z,27.63
2022-10-07T18:17:48.510Z,31.50
2022-10-07T18:20:22.230Z,29.60
2022-10-07T18:22:57.898Z,32.27
2022-10-07T18:25:28.698Z,28.93
2022-10-07T18:27:59.531Z,28.10
2022-10-07T18:30:30.340Z,28.40
2022-10-07T18:33:01.092Z,28.03
2022-10-07T18:35:33.487Z,31.77
2022-10-07T18:38:04.303Z,26.67
2022-10-07T18:40:35.070Z,27.63
2022-10-07T18:43:05.859Z,30.67
2022-10-07T18:45:36.656Z,31.30
2022-10-07T18:48:07.508Z,33.53
2022-10-07T18:50:39.876Z,26.83
2022-10-07T18:53:10.617Z,31.57
2022-10-07T18:55:42.662Z,30.60
2022-10-07T18:58:13.405Z,31.77
2022-10-07T19:00:45.008Z,31.47
2022-10-07T19:03:15.909Z,31.80
2022-10-07T19:05:48.275Z,28.33
2022-10-07T19:08:19.277Z,28.13
2022-10-07T19:10:50.025Z,29.97
2022-10-07T19:13:39.547Z,27.00
2022-10-07T19:16:10.519Z,25.33
2022-10-07T19:18:41.350Z,31.07
2022-10-07T19:21:14.157Z,28.07
2022-10-07T19:23:44.990Z,27.93
2022-10-07T19:26:20.913Z,27.80
2022-10-07T19:28:53.068Z,27.20
2022-10-07T19:31:26.347Z,26.27
2022-10-07T19:34:03.067Z,30.83
2022-10-07T19:36:37.344Z,30.77
2022-10-07T19:39:08.360Z,30.70
2022-10-07T19:41:40.104Z,26.33
2022-10-07T19:44:10.854Z,26.83
2022-10-07T19:46:42.559Z,28.53
2022-10-07T19:49:13.927Z,26.87
2022-10-07T19:51:46.324Z,25.23
2022-10-07T19:54:17.218Z,28.30
2022-10-07T19:56:48.009Z,27.83
2022-10-07T19:59:18.961Z,26.90
2022-10-07T20:01:50.449Z,26.50
2022-10-07T20:04:22.406Z,23.10
2022-10-07T20:06:54.773Z,27.43
2022-10-07T20:09:25.663Z,25.33
2022-10-07T20:11:56.701Z,25.27
2022-10-07T20:14:27.586Z,25.93
2022-10-07T20:16:58.406Z,23.23
2022-10-07T20:19:29.176Z,25.53
2022-10-07T20:22:02.680Z,26.87
2022-10-07T20:24:33.498Z,24.77
2022-10-07T20:27:04.911Z,24.43
2022-10-07T20:29:55.705Z,22.50
2022-10-07T20:32:26.789Z,23.03
2022-10-07T20:34:57.835Z,26.17
2022-10-07T20:37:30.563Z,26.37
2022-10-07T20:40:20.250Z,29.90
2022-10-07T20:42:51.892Z,24.47
2022-10-07T20:45:22.882Z,22.43
2022-10-07T20:47:56.033Z,23.20
2022-10-07T20:50:26.779Z,22.70
2022-10-07T20:52:59.203Z,22.13
2022-10-07T20:55:34.040Z,20.90
2022-10-07T20:58:06.889Z,21.03
2022-10-07T21:00:37.919Z,23.90
2022-10-07T21:03:08.703Z,19.80
2022-10-07T21:05:40.166Z,19.63
2022-10-07T21:08:12.712Z,19.77
2022-10-07T21:10:43.471Z,20.33
2022-10-07T21:13:15.433Z,19.50
2022-10-07T21:15:46.945Z,21.37
2022-10-07T21:18:18.013Z,20.13
2022-10-07T21:20:56.727Z,19.53
2022-10-07T21:23:30.621Z,19.40
2022-10-07T21:26:04.419Z,18.70
2022-10-07T21:28:37.455Z,17.53
2022-10-07T21:31:10.668Z,19.83
2022-10-07T21:33:42.277Z,18.87
2022-10-07T21:36:16.633Z,20.03
2022-10-07T21:38:52.908Z,19.67
2022-10-07T21:41:25.781Z,19.53
2022-10-07T21:43:59.045Z,19.70
2022-10-07T21:46:30.696Z,20.10
2022-10-07T21:49:01.565Z,23.93
2022-10-07T21:51:33.126Z,19.83
2022-10-07T21:54:05.950Z,17.73
2022-10-07T21:56:37.559Z,18.20
2022-10-07T21:59:08.424Z,18.13
2022-10-07T22:01:39.552Z,20.10
2022-10-07T22:04:10.384Z,17.90
2022-10-07T22:06:57.788Z,18.43
2022-10-07T22:09:30.393Z,23.20
2022-10-07T22:12:01.421Z,17.50
2022-10-07T22:14:32.178Z,19.37
2022-10-07T22:17:02.944Z,16.87
2022-10-07T22:19:33.716Z,16.40
2022-10-07T22:22:05.347Z,17.83
2022-10-07T22:24:37.853Z,17.63
2022-10-07T22:27:08.602Z,16.67
2022-10-07T22:29:40.599Z,16.40
2022-10-07T22:32:11.379Z,17.70
2022-10-07T22:34:58.626Z,16.80
2022-10-07T22:37:29.453Z,17.07
2022-10-07T22:40:01.852Z,17.27
2022-10-07T22:42:32.600Z,16.60
2022-10-07T22:45:03.378Z,17.80
2022-10-07T22:47:34.114Z,16.13
2022-10-07T22:50:09.015Z,19.33
2022-10-07T22:52:39.927Z,15.97
2022-10-07T22:55:12.861Z,19.60
2022-10-07T22:57:43.574Z,16.17
2022-10-07T23:00:15.659Z,16.67
2022-10-07T23:02:46.795Z,16.10
2022-10-07T23:05:18.106Z,19.97
2022-10-07T23:07:48.854Z,18.30
2022-10-07T23:10:21.228Z,18.07
2022-10-07T23:12:51.966Z,19.57
2022-10-07T23:15:22.725Z,17.33
2022-10-07T23:17:53.549Z,18.40
2022-10-07T23:20:28.470Z,16.20
2022-10-07T23:22:59.245Z,15.20
2022-10-07T23:25:31.622Z,17.37
2022-10-07T23:28:02.405Z,16.33
2022-10-07T23:30:33.196Z,20.40
2022-10-07T23:33:03.987Z,17.50
2022-10-07T23:35:34.707Z,16.67
2022-10-07T23:38:05.460Z,16.33
2022-10-07T23:40:37.859Z,17.10
2022-10-07T23:43:08.612Z,18.53
2022-10-07T23:45:39.374Z,19.33
2022-10-07T23:48:10.594Z,17.80
2022-10-07T23:50:44.986Z,16.83
2022-10-07T23:53:15.737Z,18.60
2022-10-07T23:55:50.598Z,18.93
2022-10-07T23:58:22.755Z,18.47
